Buoy 55952

sailwx.info

Track history (hours):
 
Tides and Currents Weather Stations Pressure Air Temp Water Temp Dewpoint Dewpoint Depression Visibility Wind Speed Wind Dir Waves Ship Positions

Drifting buoy 55952

Last reported at 2018-Jun-18 08:00 UTC. Time now 2018-Jun-18 09:44 UTC.
Position S 32°12' E 163°24'.

Date/timePositionNaut miles runAvg speedWind from/ knotsBaromVisibWave heightAir tempDewpointWater temp
2018-Jun-18 08:00S 32°12' E 163°24'0 0.0
2018-Jun-18 07:00S 32°12' E 163°24'0 0.0
2018-Jun-18 06:00S 32°12' E 163°24'1 0.5
2018-Jun-18 05:00S 32°12' E 163°25'0 0.0
2018-Jun-18 04:00S 32°12' E 163°25'2 0.3
2018-Jun-17 23:00S 32°12' E 163°26'1 0.3
2018-Jun-17 21:00S 32°12' E 163°26'0 0.0
2018-Jun-17 20:00S 32°12' E 163°26'1 0.3
2018-Jun-17 18:00S 32°13' E 163°26'1 0.8
2018-Jun-17 17:00S 32°13' E 163°25'0 0.0
2018-Jun-17 16:00S 32°13' E 163°25'1 0.3
2018-Jun-17 12:00S 32°14' E 163°24'0 0.0
2018-Jun-17 11:00S 32°14' E 163°24'0 0.0
2018-Jun-17 10:00S 32°14' E 163°24'0 0.0
2018-Jun-17 09:00S 32°14' E 163°24'1 0.6
2018-Jun-17 08:00S 32°14' E 163°24'0 0.0
2018-Jun-17 07:00S 32°14' E 163°24'1 0.8
2018-Jun-17 06:00S 32°15' E 163°25'1 0.5
2018-Jun-17 05:00S 32°15' E 163°24'0 0.0
2018-Jun-17 04:00S 32°15' E 163°24'0 0.0
2018-Jun-16 23:00S 32°15' E 163°24'0 0.0
2018-Jun-16 22:00S 32°15' E 163°24'1 0.5
2018-Jun-16 21:00S 32°15' E 163°25'1 0.8
2018-Jun-16 20:00S 32°16' E 163°24'1 0.6
2018-Jun-16 19:00S 32°16' E 163°24'1 0.8
2018-Jun-16 18:00S 32°16' E 163°23'0 0.0
2018-Jun-16 16:00S 32°16' E 163°23'0 0.0
2018-Jun-16 15:00S 32°16' E 163°23'1 0.3
2018-Jun-16 11:00S 32°17' E 163°24'0 0.0
2018-Jun-16 09:00S 32°17' E 163°24'1 0.6
2018-Jun-16 07:00S 32°18' E 163°24'0 0.0
2018-Jun-16 06:00S 32°18' E 163°24'1 0.5
2018-Jun-16 05:00S 32°18' E 163°23'0 0.0
2018-Jun-16 04:00S 32°18' E 163°23'1 0.2
2018-Jun-15 22:00S 32°17' E 163°24'1 0.5
2018-Jun-15 21:00S 32°17' E 163°25'1 0.5
2018-Jun-15 20:00S 32°17' E 163°24'1 0.5
2018-Jun-15 19:00S 32°17' E 163°25'0 0.0
2018-Jun-15 18:00S 32°17' E 163°25'1 1.2
2018-Jun-15 17:00S 32°17' E 163°23'0 0.0
2018-Jun-15 16:00S 32°17' E 163°23'1 0.2
2018-Jun-15 11:00S 32°18' E 163°23'1 0.5
2018-Jun-15 10:00S 32°18' E 163°23'1 0.5
2018-Jun-15 09:00S 32°18' E 163°24'1 1.2
2018-Jun-15 08:00S 32°19' E 163°23'1 0.5
2018-Jun-15 07:00S 32°19' E 163°23'1 0.6
2018-Jun-15 06:00S 32°19' E 163°23'1 1.0
2018-Jun-15 05:00S 32°19' E 163°22'1 0.1
2018-Jun-14 23:00S 32°20' E 163°22'0 0.0
2018-Jun-14 21:00S 32°20' E 163°22'1 0.3
2018-Jun-14 19:00S 32°20' E 163°22'1 0.8
2018-Jun-14 18:00S 32°20' E 163°22'0 0.0
2018-Jun-14 16:00S 32°20' E 163°22'2 2.4
2018-Jun-14 15:00S 32°23' E 163°22'1 0.1
2018-Jun-14 11:00S 32°23' E 163°22'1 0.6
2018-Jun-14 10:00S 32°23' E 163°22'2 1.0
2018-Jun-14 08:00S 32°25' E 163°20'0 0.0
2018-Jun-14 07:00S 32°25' E 163°20'0 0.0
2018-Jun-14 06:00S 32°25' E 163°20'1 0.6
2018-Jun-14 05:00S 32°25' E 163°20'2 0.3
2018-Jun-13 23:00S 32°27' E 163°20'3 0.5
2018-Jun-13 18:00S 32°29' E 163°21'1 0.6
2018-Jun-13 17:00S 32°29' E 163°21'0 0.0
2018-Jun-13 16:00S 32°29' E 163°21'2 1.9
2018-Jun-13 15:00S 32°31' E 163°22'0 0.0
2018-Jun-13 12:00S 32°31' E 163°22'1 0.6
2018-Jun-13 11:00S 32°31' E 163°22'0 0.0
2018-Jun-13 10:00S 32°31' E 163°22'1 0.8
2018-Jun-13 09:00S 32°32' E 163°22'1 0.5
2018-Jun-13 08:00S 32°32' E 163°22'1 1.3
2018-Jun-13 07:00S 32°33' E 163°22'0 0.0
2018-Jun-13 06:00S 32°33' E 163°22'1 0.5
2018-Jun-13 05:00S 32°33' E 163°22'3 2.7
2018-Jun-13 04:00S 32°35' E 163°24'0 0.0
2018-Jun-12 23:00S 32°35' E 163°24'0 0.0
2018-Jun-12 22:00S 32°35' E 163°24'1 0.6
2018-Jun-12 21:00S 32°35' E 163°24'1 0.5
2018-Jun-12 20:00S 32°35' E 163°25'1 0.4
2018-Jun-12 18:00S 32°36' E 163°25'0 0.0
2018-Jun-12 17:00S 32°36' E 163°25'1 0.8
2018-Jun-12 16:00S 32°37' E 163°25'0 0.0
2018-Jun-12 15:00S 32°37' E 163°25'2 0.7
2018-Jun-12 12:00S 32°37' E 163°27'0 0.0
2018-Jun-12 11:00S 32°37' E 163°27'1 0.8
2018-Jun-12 10:00S 32°38' E 163°28'0 0.0
2018-Jun-12 09:00S 32°38' E 163°28'1 0.8
2018-Jun-12 08:00S 32°37' E 163°27'2 0.8
2018-Jun-12 06:00S 32°38' E 163°29'0 0.0
2018-Jun-12 05:00S 32°38' E 163°29'2 1.8
2018-Jun-12 04:00S 32°40' E 163°29'0 0.0
2018-Jun-12 03:00S 32°40' E 163°29'1 0.3
2018-Jun-11 23:00S 32°40' E 163°30'0 0.0
2018-Jun-11 22:00S 32°40' E 163°30'0 0.0
2018-Jun-11 21:00S 32°40' E 163°30'1 0.5
2018-Jun-11 20:00S 32°40' E 163°31'1 0.5
2018-Jun-11 19:00S 32°40' E 163°31'1 0.6
2018-Jun-11 18:00S 32°40' E 163°31'1 0.5
2018-Jun-11 17:00S 32°40' E 163°32'1 0.6
2018-Jun-11 16:00S 32°41' E 163°32'0 0.0
2018-Jun-11 15:00S 32°41' E 163°32'2 0.5
2018-Jun-11 12:00S 32°42' E 163°33'0 0.0
2018-Jun-11 11:00S 32°42' E 163°33'1 1.2
2018-Jun-11 10:00S 32°41' E 163°34'0 0.0
2018-Jun-11 09:00S 32°41' E 163°34'0 0.0
2018-Jun-11 08:00S 32°41' E 163°34'2 0.8
2018-Jun-11 06:00S 32°41' E 163°36'1 0.8
2018-Jun-11 05:00S 32°42' E 163°37'0 0.0
2018-Jun-11 04:00S 32°42' E 163°37'0 0.0
2018-Jun-11 03:00S 32°42' E 163°37'1 0.1
2018-Jun-10 22:00S 32°42' E 163°37'1 1.0
2018-Jun-10 21:00S 32°42' E 163°38'1 0.8
2018-Jun-10 20:00S 32°41' E 163°38'1 0.5
2018-Jun-10 19:00S 32°41' E 163°38'1 1.2
2018-Jun-10 18:00S 32°41' E 163°40'0 0.0
2018-Jun-10 17:00S 32°41' E 163°40'1 0.8
2018-Jun-10 16:00S 32°41' E 163°40'0 0.0
2018-Jun-10 15:00S 32°41' E 163°40'2 0.6
2018-Jun-10 12:00S 32°43' E 163°40'1 0.5
2018-Jun-10 11:00S 32°43' E 163°41'1 0.6
2018-Jun-10 10:00S 32°43' E 163°41'0 0.0
2018-Jun-10 09:00S 32°43' E 163°41'1 0.8
2018-Jun-10 08:00S 32°42' E 163°41'0 0.0
2018-Jun-10 07:00S 32°42' E 163°41'1 0.5
2018-Jun-10 06:00S 32°42' E 163°42'1 0.5
2018-Jun-10 05:00S 32°42' E 163°43'0 0.0
2018-Jun-10 04:00S 32°42' E 163°43'2 0.4
2018-Jun-09 23:00S 32°44' E 163°44'0 0.0
2018-Jun-09 22:00S 32°44' E 163°44'1 0.8
2018-Jun-09 21:00S 32°43' E 163°44'0 0.0
2018-Jun-09 20:00S 32°43' E 163°44'2 0.8
2018-Jun-09 18:00S 32°43' E 163°46'0 0.0
2018-Jun-09 17:00S 32°43' E 163°46'0 0.0
2018-Jun-09 16:00S 32°43' E 163°46'0 0.0
2018-Jun-09 15:00S 32°43' E 163°46'2 0.6
2018-Jun-09 11:00S 32°44' E 163°49'0 0.0
2018-Jun-09 10:00S 32°44' E 163°49'2 0.4
2018-Jun-09 06:00S 32°42' E 163°49'2 1.5
2018-Jun-09 05:00S 32°42' E 163°50'0 0.0
2018-Jun-09 04:00S 32°42' E 163°50'1 0.2
2018-Jun-08 23:00S 32°43' E 163°52'0 0.0
2018-Jun-08 22:00S 32°43' E 163°52'1 1.3
2018-Jun-08 21:00S 32°44' E 163°51'1 0.5
2018-Jun-08 20:00S 32°44' E 163°52'0 0.0
2018-Jun-08 19:00S 32°44' E 163°52'0 0.0
2018-Jun-08 18:00S 32°44' E 163°52'1 0.5
2018-Jun-08 16:00S 32°44' E 163°53'0 0.0
2018-Jun-08 15:00S 32°44' E 163°53'3 0.9
2018-Jun-08 12:00S 32°44' E 163°56'1 1.2
2018-Jun-08 11:00S 32°44' E 163°57'0 0.0
2018-Jun-08 10:00S 32°44' E 163°57'1 0.5
2018-Jun-08 09:00S 32°44' E 163°56'  
Track history (hours):
 
Tides and Currents Weather Stations Pressure Air Temp Water Temp Dewpoint Dewpoint Depression Visibility Wind Speed Wind Dir Waves Ship Positions

Drifting buoy 55952

Last reported at 2018-Jun-18 08:00 UTC. Time now 2018-Jun-18 09:44 UTC.
Position S 32°12' E 163°24'.

Date/timePositionNaut miles runAvg speedWind from/ knotsBaromVisibWave heightAir tempDewpointWater temp
2018-Jun-18 08:00S 32°12' E 163°24'0 0.0
2018-Jun-18 07:00S 32°12' E 163°24'0 0.0
2018-Jun-18 06:00S 32°12' E 163°24'1 0.5
2018-Jun-18 05:00S 32°12' E 163°25'0 0.0
2018-Jun-18 04:00S 32°12' E 163°25'2 0.3
2018-Jun-17 23:00S 32°12' E 163°26'1 0.3
2018-Jun-17 21:00S 32°12' E 163°26'0 0.0
2018-Jun-17 20:00S 32°12' E 163°26'1 0.3
2018-Jun-17 18:00S 32°13' E 163°26'1 0.8
2018-Jun-17 17:00S 32°13' E 163°25'0 0.0
2018-Jun-17 16:00S 32°13' E 163°25'1 0.3
2018-Jun-17 12:00S 32°14' E 163°24'0 0.0
2018-Jun-17 11:00S 32°14' E 163°24'0 0.0
2018-Jun-17 10:00S 32°14' E 163°24'0 0.0
2018-Jun-17 09:00S 32°14' E 163°24'1 0.6
2018-Jun-17 08:00S 32°14' E 163°24'0 0.0
2018-Jun-17 07:00S 32°14' E 163°24'1 0.8
2018-Jun-17 06:00S 32°15' E 163°25'1 0.5
2018-Jun-17 05:00S 32°15' E 163°24'0 0.0
2018-Jun-17 04:00S 32°15' E 163°24'0 0.0
2018-Jun-16 23:00S 32°15' E 163°24'0 0.0
2018-Jun-16 22:00S 32°15' E 163°24'1 0.5
2018-Jun-16 21:00S 32°15' E 163°25'1 0.8
2018-Jun-16 20:00S 32°16' E 163°24'1 0.6
2018-Jun-16 19:00S 32°16' E 163°24'1 0.8
2018-Jun-16 18:00S 32°16' E 163°23'0 0.0
2018-Jun-16 16:00S 32°16' E 163°23'0 0.0
2018-Jun-16 15:00S 32°16' E 163°23'1 0.3
2018-Jun-16 11:00S 32°17' E 163°24'0 0.0
2018-Jun-16 09:00S 32°17' E 163°24'1 0.6
2018-Jun-16 07:00S 32°18' E 163°24'0 0.0
2018-Jun-16 06:00S 32°18' E 163°24'1 0.5
2018-Jun-16 05:00S 32°18' E 163°23'0 0.0
2018-Jun-16 04:00S 32°18' E 163°23'1 0.2
2018-Jun-15 22:00S 32°17' E 163°24'1 0.5
2018-Jun-15 21:00S 32°17' E 163°25'1 0.5
2018-Jun-15 20:00S 32°17' E 163°24'1 0.5
2018-Jun-15 19:00S 32°17' E 163°25'0 0.0
2018-Jun-15 18:00S 32°17' E 163°25'1 1.2
2018-Jun-15 17:00S 32°17' E 163°23'0 0.0
2018-Jun-15 16:00S 32°17' E 163°23'1 0.2
2018-Jun-15 11:00S 32°18' E 163°23'1 0.5
2018-Jun-15 10:00S 32°18' E 163°23'1 0.5
2018-Jun-15 09:00S 32°18' E 163°24'1 1.2
2018-Jun-15 08:00S 32°19' E 163°23'1 0.5
2018-Jun-15 07:00S 32°19' E 163°23'1 0.6
2018-Jun-15 06:00S 32°19' E 163°23'1 1.0
2018-Jun-15 05:00S 32°19' E 163°22'1 0.1
2018-Jun-14 23:00S 32°20' E 163°22'0 0.0
2018-Jun-14 21:00S 32°20' E 163°22'1 0.3
2018-Jun-14 19:00S 32°20' E 163°22'1 0.8
2018-Jun-14 18:00S 32°20' E 163°22'0 0.0
2018-Jun-14 16:00S 32°20' E 163°22'2 2.4
2018-Jun-14 15:00S 32°23' E 163°22'1 0.1
2018-Jun-14 11:00S 32°23' E 163°22'1 0.6
2018-Jun-14 10:00S 32°23' E 163°22'2 1.0
2018-Jun-14 08:00S 32°25' E 163°20'0 0.0
2018-Jun-14 07:00S 32°25' E 163°20'0 0.0
2018-Jun-14 06:00S 32°25' E 163°20'1 0.6
2018-Jun-14 05:00S 32°25' E 163°20'2 0.3
2018-Jun-13 23:00S 32°27' E 163°20'3 0.5
2018-Jun-13 18:00S 32°29' E 163°21'1 0.6
2018-Jun-13 17:00S 32°29' E 163°21'0 0.0
2018-Jun-13 16:00S 32°29' E 163°21'2 1.9
2018-Jun-13 15:00S 32°31' E 163°22'0 0.0
2018-Jun-13 12:00S 32°31' E 163°22'1 0.6
2018-Jun-13 11:00S 32°31' E 163°22'0 0.0
2018-Jun-13 10:00S 32°31' E 163°22'1 0.8
2018-Jun-13 09:00S 32°32' E 163°22'1 0.5
2018-Jun-13 08:00S 32°32' E 163°22'1 1.3
2018-Jun-13 07:00S 32°33' E 163°22'0 0.0
2018-Jun-13 06:00S 32°33' E 163°22'1 0.5
2018-Jun-13 05:00S 32°33' E 163°22'3 2.7
2018-Jun-13 04:00S 32°35' E 163°24'0 0.0
2018-Jun-12 23:00S 32°35' E 163°24'0 0.0
2018-Jun-12 22:00S 32°35' E 163°24'1 0.6
2018-Jun-12 21:00S 32°35' E 163°24'1 0.5
2018-Jun-12 20:00S 32°35' E 163°25'1 0.4
2018-Jun-12 18:00S 32°36' E 163°25'0 0.0
2018-Jun-12 17:00S 32°36' E 163°25'1 0.8
2018-Jun-12 16:00S 32°37' E 163°25'0 0.0
2018-Jun-12 15:00S 32°37' E 163°25'2 0.7
2018-Jun-12 12:00S 32°37' E 163°27'0 0.0
2018-Jun-12 11:00S 32°37' E 163°27'1 0.8
2018-Jun-12 10:00S 32°38' E 163°28'0 0.0
2018-Jun-12 09:00S 32°38' E 163°28'1 0.8
2018-Jun-12 08:00S 32°37' E 163°27'2 0.8
2018-Jun-12 06:00S 32°38' E 163°29'0 0.0
2018-Jun-12 05:00S 32°38' E 163°29'2 1.8
2018-Jun-12 04:00S 32°40' E 163°29'0 0.0
2018-Jun-12 03:00S 32°40' E 163°29'1 0.3
2018-Jun-11 23:00S 32°40' E 163°30'0 0.0
2018-Jun-11 22:00S 32°40' E 163°30'0 0.0
2018-Jun-11 21:00S 32°40' E 163°30'1 0.5
2018-Jun-11 20:00S 32°40' E 163°31'1 0.5
2018-Jun-11 19:00S 32°40' E 163°31'1 0.6
2018-Jun-11 18:00S 32°40' E 163°31'1 0.5
2018-Jun-11 17:00S 32°40' E 163°32'1 0.6
2018-Jun-11 16:00S 32°41' E 163°32'0 0.0
2018-Jun-11 15:00S 32°41' E 163°32'2 0.5
2018-Jun-11 12:00S 32°42' E 163°33'0 0.0
2018-Jun-11 11:00S 32°42' E 163°33'1 1.2
2018-Jun-11 10:00S 32°41' E 163°34'0 0.0
2018-Jun-11 09:00S 32°41' E 163°34'0 0.0
2018-Jun-11 08:00S 32°41' E 163°34'2 0.8
2018-Jun-11 06:00S 32°41' E 163°36'1 0.8
2018-Jun-11 05:00S 32°42' E 163°37'0 0.0
2018-Jun-11 04:00S 32°42' E 163°37'0 0.0
2018-Jun-11 03:00S 32°42' E 163°37'1 0.1
2018-Jun-10 22:00S 32°42' E 163°37'1 1.0
2018-Jun-10 21:00S 32°42' E 163°38'1 0.8
2018-Jun-10 20:00S 32°41' E 163°38'1 0.5
2018-Jun-10 19:00S 32°41' E 163°38'1 1.2
2018-Jun-10 18:00S 32°41' E 163°40'0 0.0
2018-Jun-10 17:00S 32°41' E 163°40'1 0.8
2018-Jun-10 16:00S 32°41' E 163°40'0 0.0
2018-Jun-10 15:00S 32°41' E 163°40'2 0.6
2018-Jun-10 12:00S 32°43' E 163°40'1 0.5
2018-Jun-10 11:00S 32°43' E 163°41'1 0.6
2018-Jun-10 10:00S 32°43' E 163°41'0 0.0
2018-Jun-10 09:00S 32°43' E 163°41'1 0.8
2018-Jun-10 08:00S 32°42' E 163°41'0 0.0
2018-Jun-10 07:00S 32°42' E 163°41'1 0.5
2018-Jun-10 06:00S 32°42' E 163°42'1 0.5
2018-Jun-10 05:00S 32°42' E 163°43'0 0.0
2018-Jun-10 04:00S 32°42' E 163°43'2 0.4
2018-Jun-09 23:00S 32°44' E 163°44'0 0.0
2018-Jun-09 22:00S 32°44' E 163°44'1 0.8
2018-Jun-09 21:00S 32°43' E 163°44'0 0.0
2018-Jun-09 20:00S 32°43' E 163°44'2 0.8
2018-Jun-09 18:00S 32°43' E 163°46'0 0.0
2018-Jun-09 17:00S 32°43' E 163°46'0 0.0
2018-Jun-09 16:00S 32°43' E 163°46'0 0.0
2018-Jun-09 15:00S 32°43' E 163°46'2 0.6
2018-Jun-09 11:00S 32°44' E 163°49'0 0.0
2018-Jun-09 10:00S 32°44' E 163°49'2 0.4
2018-Jun-09 06:00S 32°42' E 163°49'2 1.5
2018-Jun-09 05:00S 32°42' E 163°50'0 0.0
2018-Jun-09 04:00S 32°42' E 163°50'1 0.2
2018-Jun-08 23:00S 32°43' E 163°52'0 0.0
2018-Jun-08 22:00S 32°43' E 163°52'1 1.3
2018-Jun-08 21:00S 32°44' E 163°51'1 0.5
2018-Jun-08 20:00S 32°44' E 163°52'0 0.0
2018-Jun-08 19:00S 32°44' E 163°52'0 0.0
2018-Jun-08 18:00S 32°44' E 163°52'1 0.5
2018-Jun-08 16:00S 32°44' E 163°53'0 0.0
2018-Jun-08 15:00S 32°44' E 163°53'3 0.9
2018-Jun-08 12:00S 32°44' E 163°56'1 1.2
2018-Jun-08 11:00S 32°44' E 163°57'0 0.0
2018-Jun-08 10:00S 32°44' E 163°57'1 0.5
2018-Jun-08 09:00S 32°44' E 163°56'  

Dump ship's entire track history